Spencer, WI

9:09 PM CDT on August 30, 2014 (GMT -0500)
Wausau Downtown | Change Station
CLOSE
Current Station
Airport
Location: Wausau,
Elevation: 1201 ft
Nearby Weather Stations

Elev 1201 ft 44.93 °N, 89.63 °W | Updated 15 minutes ago

Overcast
Overcast
64 °F
Feels Like 64 °F
N
7
Wind Variable Wind from North

Today
High -- | Low -- °F
--% Chance of Precip.
Yesterday
High -- | Low -- °F
Precip. -- in
6:21 AM 7:41 PM
Waxing Crescent, 26% visible
Pressure 29.89 in
Visibility 10.0 miles
Clouds Mostly Cloudy 1300 ft
Overcast 2100 ft
Dew Point 59 °F
Humidity 84%
Rainfall 1.08 in
Snow Depth Not available.
UV 0 out of 12
Pollen 1.70 out of 12
Air Quality Not available.
Flu Activity Not available.
METAR KAUW 310154Z AUTO 35006KT 10SM BKN013 OVC021 18/15 A2989 RMK AO2 SLP122 T01780150 $

More Conditions Fewer Conditions

Pressure 29.89 in
Visibility 10.0 miles
Clouds Mostly Cloudy 1300 ft
Overcast 2100 ft
Dew Point 59 °F
Humidity 84%
Rainfall 1.08 in
Snow Depth Not available.
UV 0 out of 12
Pollen 1.70 out of 12
Air Quality Not available.
Flu Activity Not available.
METAR KAUW 310154Z AUTO 35006KT 10SM BKN013 OVC021 18/15 A2989 RMK AO2 SLP122 T01780150 $

More Conditions Fewer Conditions

10-Day Weather Forecast

Almanac

Astronomy

Aug. 30, 2014 Rise Set
Actual Time 6:21 AM CDT 7:41 PM CDT
Civil Twilight 5:50 AM CDT 8:11 PM CDT
Nautical Twilight 5:14 AM CDT 8:48 PM CDT
Astronomical Twilight 4:35 AM CDT 9:26 PM CDT
Moon 11:22 AM CDT (8/30) 10:01 PM CDT (8/30)
Length of Visible Light 14h 20m
Length of Day
13h 20m
Tomorrow will be 2m 58s shorter.
Waxing Crescent, 26% of the Moon is Illuminated
Today
Waxing Crescent
Sep 2
First Quarter
Sep 8
Full
Sep 15
Last Quarter
Sep 24
New

Today's Extremes

State Highs State Lows

Community

WunderPhotos

Upload Photos

1,748,725 photos uploaded!

Nearby

Snow Depth

Station Depth Elevation
No new snow has been reported.

Earthquake Activity

City Distance Mag. Time & Date
No recent earthquake activity has been reported nearby.
Minimum magnitude displayed is 2.5.

Coastal Water Temperatures

Place Temperature
No Stations Reporting

Nearby Weather Stations